»·PEaware :: N572TD KBLH-KSNA

N572TD :: KBLH-KSNA

FLIGHT INFORMATION

Flight Status: Arrived
Operator: Privately registered:
United States
More flights under this callsign
Pilot: Utku A. (15598)
Aircraft: CESSNA 208 CARAVAN
(C208)
More flights by this aircraft type
Origin: KBLH Blythe
United States
Destination: KSNA John Wayne-Orange Co
United States
More flights between these airports :: More routes between these airports
Route: +PSP KAYOH7
File this flight plan on PilotEdge
Remarks:
Altitude:
(Current/Filed)
12,000ft
Speed:
(Current/Filed)
160kts
Departed: 17-May-18 09:50 AM
Arrived: 17-May-18 11:08 AM
Distance/Time
Traveled:
158nm/1:18
Distance/Time
To Go:
Arrived

Flight Plot

Page will automatically refresh every two minutes.

Flight plan parsing failed; only flown route is shown


Map Options




Map Legend


Flown Route
Filed Route
Departure Airport
Arrival Airport
Navaid (VOR, NDB)
Fix

Horizontal Profiles

Position Reports

Time Latitude Longitude Heading Altitude Ground
Speed
17-May-18 09:39 33.614131 -114.712666 0 394ft 0kts
17-May-18 09:40 33.614131 -114.712666 0 394ft 0kts
17-May-18 09:41 33.614131 -114.712666 0 394ft 0kts
17-May-18 09:42 33.614131 -114.712666 0 394ft 0kts
17-May-18 09:43 33.614131 -114.712666 0 394ft 0kts
17-May-18 09:44 33.614131 -114.712666 0 394ft 0kts
17-May-18 09:45 33.614131 -114.712666 0 394ft 0kts
17-May-18 09:46 33.614131 -114.712666 0 394ft 0kts
17-May-18 09:47 33.614138 -114.712666 359 394ft 0kts
17-May-18 09:48 33.615009 -114.711244 93 396ft 12kts
17-May-18 09:49 33.615302 -114.706652 51 396ft 15kts
17-May-18 09:50 33.616477 -114.719871 271 621ft 99kts
17-May-18 09:51 33.619354 -114.753863 272 2023ft 105kts
17-May-18 09:52 33.620026 -114.789340 271 3331ft 107kts
17-May-18 09:53 33.620097 -114.827094 266 4374ft 120kts
17-May-18 09:54 33.621260 -114.866906 268 5363ft 123kts
17-May-18 09:55 33.621576 -114.907834 267 6348ft 122kts
17-May-18 09:56 33.621378 -114.948835 260 7277ft 123kts
17-May-18 09:57 33.622335 -114.989441 267 8223ft 122kts
17-May-18 09:58 33.623009 -115.030390 268 9058ft 124kts
17-May-18 09:59 33.623116 -115.071671 267 9841ft 124kts
17-May-18 10:00 33.623488 -115.113669 267 10547ft 126kts
17-May-18 10:01 33.624214 -115.155820 269 11207ft 127kts
17-May-18 10:02 33.623746 -115.198668 268 11881ft 129kts
17-May-18 10:03 33.623258 -115.248973 266 11930ft 165kts
17-May-18 10:04 33.621354 -115.305443 267 11913ft 170kts
17-May-18 10:05 33.619784 -115.362307 269 11906ft 169kts
17-May-18 10:06 33.619785 -115.417197 269 11900ft 162kts
17-May-18 10:07 33.620041 -115.471395 269 11896ft 161kts
17-May-18 10:08 33.620316 -115.524033 269 11896ft 158kts
17-May-18 10:09 33.620580 -115.576747 269 11896ft 158kts
17-May-18 10:10 33.620826 -115.629704 269 11896ft 158kts
17-May-18 10:11 33.621025 -115.676542 269 11898ft 158kts
17-May-18 10:12 33.621230 -115.729541 269 11898ft 158kts
17-May-18 10:13 33.621410 -115.782481 269 11898ft 159kts
17-May-18 10:14 33.621829 -115.835568 278 11894ft 159kts
17-May-18 10:15 33.635337 -115.886488 286 11898ft 160kts
17-May-18 10:16 33.649093 -115.936699 294 11898ft 160kts
17-May-18 10:17 33.669800 -115.984036 294 11898ft 160kts
17-May-18 10:18 33.690511 -116.031493 294 11897ft 160kts
17-May-18 10:19 33.712100 -116.081021 295 11468ft 172kts
17-May-18 10:20 33.734223 -116.131808 295 10974ft 174kts
17-May-18 10:21 33.756402 -116.182851 295 10476ft 174kts
17-May-18 10:22 33.778587 -116.233994 296 9990ft 173kts
17-May-18 10:23 33.799409 -116.282084 296 9974ft 162kts
17-May-18 10:24 33.820127 -116.330025 296 9984ft 161kts
17-May-18 10:25 33.840698 -116.377658 296 9993ft 161kts
17-May-18 10:26 33.861349 -116.425526 296 9998ft 161kts
17-May-18 10:27 33.867044 -116.478589 281 9998ft 161kts
17-May-18 10:28 33.880515 -116.529983 293 9998ft 161kts
17-May-18 10:29 33.903079 -116.576507 302 9992ft 162kts
17-May-18 10:30 33.926995 -116.622101 295 9993ft 160kts
17-May-18 10:31 33.940064 -116.664448 286 9994ft 159kts
17-May-18 10:32 33.952304 -116.714290 275 10009ft 160kts
17-May-18 10:33 33.946730 -116.765407 265 10032ft 160kts
17-May-18 10:34 33.943530 -116.818631 268 10063ft 158kts
17-May-18 10:35 33.945287 -116.870952 267 10143ft 158kts
17-May-18 10:36 33.940690 -116.924193 247 9872ft 165kts
17-May-18 10:37 33.914770 -116.971056 232 9066ft 175kts
17-May-18 10:38 33.885836 -117.016496 231 8146ft 170kts
17-May-18 10:39 33.859742 -117.058417 230 8047ft 149kts
17-May-18 10:40 33.835240 -117.097315 230 8033ft 145kts
17-May-18 10:41 33.810671 -117.135294 229 8052ft 151kts
17-May-18 10:42 33.784282 -117.173818 227 8159ft 149kts
17-May-18 10:43 33.757979 -117.213307 230 8083ft 153kts
17-May-18 10:44 33.732408 -117.253672 233 8081ft 151kts
17-May-18 10:45 33.708209 -117.294906 232 8108ft 150kts
17-May-18 10:46 33.683427 -117.335200 232 8129ft 149kts
17-May-18 10:47 33.657876 -117.375253 230 8111ft 149kts
17-May-18 10:48 33.634155 -117.415917 255 8092ft 153kts
17-May-18 10:49 33.636259 -117.464004 272 8050ft 156kts
17-May-18 10:50 33.639373 -117.515061 268 8088ft 153kts
17-May-18 10:51 33.641429 -117.566057 271 8120ft 151kts
17-May-18 10:52 33.663036 -117.611696 311 7698ft 172kts
17-May-18 10:53 33.698314 -117.650082 317 6842ft 174kts
17-May-18 10:54 33.732714 -117.687364 313 6074ft 161kts
17-May-18 10:55 33.763843 -117.724225 310 6098ft 155kts
17-May-18 10:56 33.794413 -117.761237 310 6105ft 153kts
17-May-18 10:57 33.824779 -117.798420 310 5711ft 161kts
17-May-18 10:58 33.865202 -117.796649 32 4688ft 153kts
17-May-18 10:59 33.866361 -117.761898 174 3726ft 124kts
17-May-18 11:00 33.835434 -117.767391 210 3009ft 96kts
17-May-18 11:01 33.810090 -117.783226 205 2915ft 112kts
17-May-18 11:02 33.783112 -117.800696 205 2402ft 102kts
17-May-18 11:03 33.758315 -117.816512 206 1755ft 98kts
17-May-18 11:04 33.737771 -117.829613 204 1397ft 87kts
17-May-18 11:05 33.715193 -117.844027 205 798ft 91kts
17-May-18 11:06 33.692941 -117.857926 205 354ft 85kts
17-May-18 11:07 33.675318 -117.869045 205 61ft 45kts
17-May-18 11:08 33.668183 -117.871819 227 61ft 13kts
17-May-18 11:09 33.666969 -117.872224 209 61ft 2kts
17-May-18 11:10 33.666823 -117.872177 34 61ft 0kts
17-May-18 11:11 33.666823 -117.872177 34 61ft 0kts
17-May-18 11:12 33.666823 -117.872177 34 61ft 0kts
17-May-18 11:13 33.666823 -117.872177 34 61ft 0kts
17-May-18 11:14 33.666823 -117.872177 34 61ft 0kts
17-May-18 11:15 33.666823 -117.872177 34 61ft 0kts
17-May-18 11:16 33.666823 -117.872177 34 61ft 0kts
17-May-18 11:17 33.666823 -117.872177 34 61ft 0kts
17-May-18 11:18 33.666823 -117.872177 34 61ft 0kts
17-May-18 11:19 33.666823 -117.872177 34 61ft 0kts
17-May-18 11:20 33.666823 -117.872177 34 61ft 0kts
17-May-18 11:21 33.666823 -117.872177 34 61ft 0kts
17-May-18 11:22 33.666823 -117.872177 34 61ft 0kts

Navigation Log

Ident Type
Flight plan parsing failed, navigation log unavailable